createdAt,value
2022-11-24T00:01:08.984Z,9.30
2022-11-24T00:03:37.287Z,9.40
2022-11-24T00:06:07.426Z,9.30
2022-11-24T00:08:35.386Z,9.30
2022-11-24T00:11:07.378Z,9.30
2022-11-24T00:13:35.812Z,9.30
2022-11-24T00:16:10.849Z,9.30
2022-11-24T00:18:39.361Z,9.30
2022-11-24T00:21:07.602Z,9.30
2022-11-24T00:23:35.658Z,9.30
2022-11-24T00:26:08.126Z,9.30
2022-11-24T00:28:37.597Z,9.30
2022-11-24T00:31:06.953Z,9.30
2022-11-24T00:33:36.178Z,9.30
2022-11-24T00:36:04.055Z,9.40
2022-11-24T00:38:31.927Z,9.40
2022-11-24T00:40:59.779Z,9.40
2022-11-24T00:43:27.636Z,9.40
2022-11-24T00:45:55.599Z,9.50
2022-11-24T00:48:24.096Z,9.50
2022-11-24T00:51:01.483Z,9.40
2022-11-24T00:53:29.708Z,9.40
2022-11-24T00:55:57.578Z,9.50
2022-11-24T00:58:26.040Z,9.40
2022-11-24T01:00:54.348Z,9.40
2022-11-24T01:03:22.941Z,9.50
2022-11-24T01:05:50.794Z,9.60
2022-11-24T01:08:20.060Z,9.60
2022-11-24T01:10:47.902Z,9.60
2022-11-24T01:13:15.771Z,9.60
2022-11-24T01:15:43.652Z,9.60
2022-11-24T01:18:11.570Z,9.50
2022-11-24T01:20:39.440Z,9.50
2022-11-24T01:23:07.807Z,9.50
2022-11-24T01:25:40.535Z,9.50
2022-11-24T01:28:08.405Z,9.50
2022-11-24T01:30:36.312Z,9.50
2022-11-24T01:33:05.063Z,9.50
2022-11-24T01:35:32.926Z,9.40
2022-11-24T01:38:00.764Z,9.50
2022-11-24T01:40:28.626Z,9.50
2022-11-24T01:42:57.823Z,9.50
2022-11-24T01:45:34.600Z,9.50
2022-11-24T01:48:05.575Z,9.40
2022-11-24T01:50:35.952Z,9.40
2022-11-24T01:53:04.525Z,9.40
2022-11-24T01:55:37.559Z,9.40
2022-11-24T01:58:09.829Z,9.30
2022-11-24T02:00:41.192Z,9.30
2022-11-24T02:03:09.567Z,9.30
2022-11-24T02:05:41.501Z,9.30
2022-11-24T02:08:14.490Z,9.20
2022-11-24T02:10:43.733Z,9.20
2022-11-24T02:13:13.863Z,9.30
2022-11-24T02:15:41.764Z,9.20
2022-11-24T02:18:09.890Z,9.20
2022-11-24T02:20:38.084Z,9.20
2022-11-24T02:23:16.474Z,9.20
2022-11-24T02:25:52.918Z,9.10
2022-11-24T02:28:24.457Z,9.00
2022-11-24T02:30:53.380Z,9.00
2022-11-24T02:33:22.415Z,9.00
2022-11-24T02:35:50.439Z,9.00
2022-11-24T02:38:18.499Z,9.10
2022-11-24T02:40:49.762Z,8.90
2022-11-24T02:43:21.042Z,8.90
2022-11-24T02:45:50.585Z,8.90
2022-11-24T02:48:18.669Z,8.90
2022-11-24T02:50:46.509Z,8.90
2022-11-24T02:53:14.354Z,8.90
2022-11-24T02:55:42.195Z,8.80
2022-11-24T02:58:10.082Z,8.90
2022-11-24T03:00:37.928Z,8.90
2022-11-24T03:03:07.307Z,9.00
2022-11-24T03:05:35.262Z,9.00
2022-11-24T03:08:03.155Z,9.00
2022-11-24T03:10:31.155Z,9.00
2022-11-24T03:12:59.057Z,9.00
2022-11-24T03:15:26.967Z,9.00
2022-11-24T03:17:56.619Z,9.00
2022-11-24T03:20:26.773Z,9.10
2022-11-24T03:22:54.634Z,9.20
2022-11-24T03:25:22.508Z,9.10
2022-11-24T03:27:51.157Z,9.10
2022-11-24T03:30:19.096Z,9.10
2022-11-24T03:32:46.957Z,9.10
2022-11-24T03:35:14.881Z,9.10
2022-11-24T03:37:44.079Z,9.10
2022-11-24T03:40:12.584Z,9.10
2022-11-24T03:42:41.318Z,9.10
2022-11-24T03:45:44.134Z,9.10
2022-11-24T03:47:58.113Z,9.20
2022-11-24T03:50:25.999Z,9.20
2022-11-24T03:52:55.200Z,9.30
2022-11-24T03:55:23.058Z,9.30
2022-11-24T03:57:51.067Z,9.20
2022-11-24T04:00:19.400Z,9.20
2022-11-24T04:02:48.187Z,9.20
2022-11-24T04:05:16.246Z,9.20
2022-11-24T04:07:44.184Z,9.30
2022-11-24T04:10:13.696Z,9.30
2022-11-24T04:12:47.175Z,9.30
2022-11-24T04:15:17.231Z,9.30
2022-11-24T04:17:45.636Z,9.30
2022-11-24T04:20:14.192Z,9.30
2022-11-24T04:22:42.412Z,9.40
2022-11-24T04:25:11.176Z,9.40
2022-11-24T04:27:40.547Z,9.40
2022-11-24T04:30:09.476Z,9.30
2022-11-24T04:32:37.949Z,9.40
2022-11-24T04:35:06.498Z,9.30
2022-11-24T04:37:35.731Z,9.40
2022-11-24T04:40:03.831Z,9.40
2022-11-24T04:42:31.715Z,9.40
2022-11-24T04:45:00.927Z,9.40
2022-11-24T04:47:29.195Z,9.40
2022-11-24T04:49:57.076Z,9.40
2022-11-24T04:52:26.377Z,9.40
2022-11-24T04:54:54.315Z,9.40
2022-11-24T04:57:24.363Z,9.50
2022-11-24T04:59:52.692Z,9.50
2022-11-24T05:02:22.551Z,9.50
2022-11-24T05:04:50.949Z,9.40
2022-11-24T05:07:19.784Z,9.50
2022-11-24T05:10:05.171Z,9.50
2022-11-24T05:12:33.047Z,9.60
2022-11-24T05:15:01.777Z,9.50
2022-11-24T05:17:32.299Z,9.60
2022-11-24T05:20:00.363Z,9.60
2022-11-24T05:22:30.314Z,9.60
2022-11-24T05:24:58.231Z,9.60
2022-11-24T05:27:26.194Z,9.60
2022-11-24T05:29:54.122Z,9.60
2022-11-24T05:32:22.017Z,9.60
2022-11-24T05:34:51.866Z,9.60
2022-11-24T05:37:19.752Z,9.60
2022-11-24T05:39:47.884Z,9.60
2022-11-24T05:42:33.322Z,9.50
2022-11-24T05:45:01.180Z,9.50
2022-11-24T05:47:29.033Z,9.50
2022-11-24T05:49:58.274Z,9.50
2022-11-24T05:52:26.133Z,9.60
2022-11-24T05:54:55.059Z,9.60
2022-11-24T05:57:23.127Z,9.50
2022-11-24T05:59:50.981Z,9.50
2022-11-24T06:02:19.112Z,9.50
2022-11-24T06:04:47.225Z,9.50
2022-11-24T06:07:17.004Z,9.60
2022-11-24T06:09:45.505Z,9.60
2022-11-24T06:12:14.177Z,9.50
2022-11-24T06:14:42.564Z,9.50
2022-11-24T06:17:11.572Z,9.40
2022-11-24T06:19:42.038Z,9.40
2022-11-24T06:22:10.351Z,9.50
2022-11-24T06:24:39.557Z,9.50
2022-11-24T06:27:07.725Z,9.60
2022-11-24T06:29:35.600Z,9.50
2022-11-24T06:32:03.503Z,9.50
2022-11-24T06:34:31.600Z,9.50
2022-11-24T06:36:59.594Z,9.50
2022-11-24T06:39:27.502Z,9.50
2022-11-24T06:41:56.750Z,9.60
2022-11-24T06:44:24.909Z,9.70
2022-11-24T06:46:52.838Z,9.70
2022-11-24T06:49:20.698Z,9.80
2022-11-24T06:51:48.574Z,9.80
2022-11-24T06:54:18.427Z,9.80
2022-11-24T06:56:46.288Z,9.80
2022-11-24T06:59:19.993Z,9.80
2022-11-24T07:01:48.398Z,9.60
2022-11-24T07:04:16.895Z,9.50
2022-11-24T07:06:44.823Z,9.50
2022-11-24T07:09:14.346Z,9.30
2022-11-24T07:11:42.807Z,9.40
2022-11-24T07:14:11.058Z,9.40
2022-11-24T07:16:40.742Z,9.30
2022-11-24T07:19:09.796Z,9.20
2022-11-24T07:21:37.674Z,9.20
2022-11-24T07:24:06.288Z,9.10
2022-11-24T07:26:37.233Z,9.10
2022-11-24T07:29:05.778Z,9.10
2022-11-24T07:31:33.788Z,9.10
2022-11-24T07:34:03.030Z,9.00
2022-11-24T07:36:30.928Z,9.00
2022-11-24T07:38:58.862Z,9.10
2022-11-24T07:41:26.870Z,9.10
2022-11-24T07:43:54.739Z,9.10
2022-11-24T07:46:22.640Z,9.10
2022-11-24T07:48:50.598Z,9.10
2022-11-24T07:51:19.788Z,9.10
2022-11-24T07:53:47.747Z,9.10
2022-11-24T07:56:15.666Z,9.10
2022-11-24T07:58:45.977Z,9.10
2022-11-24T08:01:18.833Z,9.10
2022-11-24T08:03:47.969Z,9.10
2022-11-24T08:06:25.102Z,9.00
2022-11-24T08:08:55.834Z,9.10
2022-11-24T08:11:24.167Z,9.10
2022-11-24T08:13:52.079Z,9.20
2022-11-24T08:16:21.221Z,9.10
2022-11-24T08:18:51.954Z,9.20
2022-11-24T08:21:20.344Z,9.20
2022-11-24T08:23:48.492Z,9.20
2022-11-24T08:26:19.353Z,9.20
2022-11-24T08:28:48.438Z,9.30
2022-11-24T08:31:18.659Z,9.30
2022-11-24T08:33:47.610Z,9.30
2022-11-24T08:36:17.871Z,9.30
2022-11-24T08:38:46.396Z,9.30
2022-11-24T08:41:17.366Z,9.40
2022-11-24T08:43:45.206Z,9.30
2022-11-24T08:46:16.882Z,9.30
2022-11-24T08:48:45.398Z,9.40
2022-11-24T08:51:15.069Z,9.40
2022-11-24T08:53:43.827Z,9.50
2022-11-24T08:56:12.882Z,9.50
2022-11-24T08:58:42.731Z,9.40
2022-11-24T09:01:12.375Z,9.50
2022-11-24T09:03:44.939Z,9.40
2022-11-24T09:06:14.604Z,9.50
2022-11-24T09:08:42.714Z,9.50
2022-11-24T09:11:12.803Z,9.50
2022-11-24T09:13:42.149Z,9.60
2022-11-24T09:16:12.817Z,9.70
2022-11-24T09:18:40.786Z,9.80
2022-11-24T09:21:09.687Z,9.80
2022-11-24T09:23:39.383Z,9.80
2022-11-24T09:26:08.659Z,9.90
2022-11-24T09:28:36.911Z,10.00
2022-11-24T09:31:08.080Z,9.90
2022-11-24T09:33:36.304Z,10.00
2022-11-24T09:36:04.959Z,10.10
2022-11-24T09:38:33.121Z,10.10
2022-11-24T09:41:27.670Z,10.10
2022-11-24T09:44:02.145Z,10.10
2022-11-24T09:46:37.270Z,10.00
2022-11-24T09:49:06.965Z,10.10
2022-11-24T09:51:35.399Z,10.10
2022-11-24T09:54:08.302Z,10.20
2022-11-24T09:56:40.550Z,10.30
2022-11-24T09:59:15.594Z,10.40
2022-11-24T10:01:46.274Z,10.50
2022-11-24T10:04:18.937Z,10.50
2022-11-24T10:06:51.064Z,10.60
2022-11-24T10:09:49.266Z,10.60
2022-11-24T10:12:31.416Z,10.50
2022-11-24T10:15:27.393Z,10.70
2022-11-24T10:18:31.803Z,11.30
2022-11-24T10:21:11.783Z,11.90
2022-11-24T10:23:53.043Z,12.60
2022-11-24T10:26:27.586Z,13.30
2022-11-24T10:28:56.871Z,14.00
2022-11-24T10:31:30.686Z,14.60
2022-11-24T10:34:04.882Z,15.00
2022-11-24T10:36:41.102Z,14.90
2022-11-24T10:39:16.203Z,15.10
2022-11-24T10:41:49.540Z,15.30
2022-11-24T10:44:17.400Z,15.40
2022-11-24T10:46:45.542Z,15.60
2022-11-24T10:49:20.320Z,15.30
2022-11-24T10:51:59.398Z,14.80
2022-11-24T10:54:27.270Z,14.90
2022-11-24T10:56:56.177Z,15.30
2022-11-24T10:59:33.219Z,15.60
2022-11-24T11:02:01.879Z,15.60
2022-11-24T11:04:33.120Z,15.40
2022-11-24T11:07:16.477Z,15.50
2022-11-24T11:09:44.372Z,15.90
2022-11-24T11:15:27.981Z,16.30
2022-11-24T11:17:59.387Z,16.30
2022-11-24T11:20:32.558Z,16.10
2022-11-24T11:23:04.209Z,16.10
2022-11-24T11:25:34.977Z,16.40
2022-11-24T11:28:23.300Z,16.20
2022-11-24T11:34:03.673Z,15.90
2022-11-24T11:36:34.529Z,15.40
2022-11-24T11:39:04.787Z,15.00
2022-11-24T11:41:35.823Z,15.10
2022-11-24T11:44:14.459Z,15.00
2022-11-24T11:46:44.566Z,15.10
2022-11-24T11:49:13.996Z,15.30
2022-11-24T11:53:53.354Z,15.40
2022-11-24T11:56:25.973Z,15.70
2022-11-24T11:59:27.544Z,15.70
2022-11-24T12:02:29.033Z,15.60
2022-11-24T12:05:00.260Z,15.60
2022-11-24T12:07:49.523Z,15.20
2022-11-24T12:10:29.773Z,14.60
2022-11-24T12:13:13.087Z,14.30
2022-11-24T12:15:44.935Z,14.10
2022-11-24T12:18:56.518Z,13.90
2022-11-24T12:21:26.930Z,13.80
2022-11-24T12:24:09.925Z,13.70
2022-11-24T12:26:46.166Z,13.50
2022-11-24T12:29:43.624Z,13.30
2022-11-24T12:32:22.607Z,13.30
2022-11-24T12:34:56.924Z,13.60
2022-11-24T12:37:49.890Z,13.40
2022-11-24T12:40:29.320Z,13.40
2022-11-24T12:43:08.851Z,13.30
2022-11-24T12:45:45.793Z,13.20
2022-11-24T12:48:36.746Z,13.10
2022-11-24T12:51:07.425Z,12.90
2022-11-24T12:53:38.366Z,12.80
2022-11-24T12:56:08.315Z,12.70
2022-11-24T12:58:43.120Z,12.70
2022-11-24T13:01:19.253Z,12.60
2022-11-24T13:04:01.449Z,12.70
2022-11-24T13:06:36.185Z,12.60
2022-11-24T13:09:10.074Z,12.50
2022-11-24T13:11:41.781Z,12.50
2022-11-24T13:14:18.498Z,12.40
2022-11-24T13:19:45.611Z,12.20
2022-11-24T13:22:23.959Z,12.30
2022-11-24T13:25:14.346Z,12.30
2022-11-24T13:27:44.689Z,12.20
2022-11-24T13:30:52.447Z,12.30
2022-11-24T13:33:39.668Z,12.20
2022-11-24T13:36:35.956Z,12.00
2022-11-24T13:39:06.076Z,11.80
2022-11-24T13:42:06.996Z,11.80
2022-11-24T13:44:54.740Z,11.70
2022-11-24T13:47:43.741Z,11.60
2022-11-24T13:50:39.201Z,11.60
2022-11-24T13:53:11.167Z,11.50
2022-11-24T13:55:41.156Z,11.50
2022-11-24T13:58:40.115Z,11.40
2022-11-24T14:01:19.088Z,11.30
2022-11-24T14:04:28.796Z,11.30
2022-11-24T14:06:48.727Z,11.30
2022-11-24T14:09:25.117Z,11.30
2022-11-24T14:12:03.900Z,11.40
2022-11-24T14:14:31.752Z,11.40
2022-11-24T14:17:23.923Z,11.50
2022-11-24T14:19:53.837Z,11.50
2022-11-24T14:22:26.686Z,11.60
2022-11-24T14:24:56.519Z,11.50
2022-11-24T14:27:30.287Z,11.30
2022-11-24T14:30:00.492Z,11.30
2022-11-24T14:32:28.701Z,11.30
2022-11-24T14:34:57.004Z,11.20
2022-11-24T14:37:26.440Z,11.20
2022-11-24T14:39:54.377Z,11.10
2022-11-24T14:42:24.128Z,11.10
2022-11-24T14:44:56.453Z,11.20
2022-11-24T14:47:31.811Z,11.20
2022-11-24T14:50:10.032Z,11.10
2022-11-24T14:52:48.307Z,11.20
2022-11-24T14:55:27.844Z,11.10
2022-11-24T14:57:55.853Z,11.20
2022-11-24T15:00:28.894Z,11.20
2022-11-24T15:03:08.815Z,11.20
2022-11-24T15:05:53.040Z,11.20
2022-11-24T15:08:23.426Z,11.00
2022-11-24T15:10:58.519Z,10.80
2022-11-24T15:13:27.048Z,10.70
2022-11-24T15:16:02.798Z,10.50
2022-11-24T15:18:37.370Z,10.40
2022-11-24T15:21:05.300Z,10.20
2022-11-24T15:23:35.321Z,10.20
2022-11-24T15:26:30.221Z,10.20
2022-11-24T15:29:00.008Z,10.20
2022-11-24T15:31:27.958Z,10.10
2022-11-24T15:33:55.950Z,10.00
2022-11-24T15:36:23.819Z,10.00
2022-11-24T15:38:53.076Z,9.90
2022-11-24T15:41:22.935Z,9.80
2022-11-24T15:43:51.032Z,9.60
2022-11-24T15:46:19.259Z,9.60
2022-11-24T15:48:47.153Z,9.60
2022-11-24T15:51:16.020Z,9.50
2022-11-24T15:53:47.209Z,9.50
2022-11-24T15:56:23.964Z,9.40
2022-11-24T15:58:51.994Z,9.30
2022-11-24T16:01:21.287Z,9.40
2022-11-24T16:03:49.594Z,9.40
2022-11-24T16:06:24.776Z,9.30
2022-11-24T16:08:53.576Z,9.20
2022-11-24T16:11:22.938Z,9.20
2022-11-24T16:13:53.222Z,9.10
2022-11-24T16:16:22.789Z,9.00
2022-11-24T16:18:50.831Z,9.00
2022-11-24T16:21:18.960Z,8.90
2022-11-24T16:23:47.763Z,8.90
2022-11-24T16:26:15.790Z,8.80
2022-11-24T16:28:45.716Z,8.70
2022-11-24T16:31:15.653Z,8.70
2022-11-24T16:33:44.784Z,8.60
2022-11-24T16:36:12.778Z,8.50
2022-11-24T16:38:40.643Z,8.50
2022-11-24T16:41:10.428Z,8.40
2022-11-24T16:43:38.796Z,8.40
2022-11-24T16:46:18.765Z,8.30
2022-11-24T16:48:46.980Z,8.20
2022-11-24T16:51:15.600Z,8.10
2022-11-24T16:53:43.846Z,8.10
2022-11-24T16:56:11.881Z,8.10
2022-11-24T16:58:41.641Z,8.00
2022-11-24T17:01:13.445Z,8.00
2022-11-24T17:03:41.971Z,7.90
2022-11-24T17:06:12.266Z,7.80
2022-11-24T17:08:41.448Z,7.70
2022-11-24T17:11:09.829Z,7.80
2022-11-24T17:13:38.339Z,7.70
2022-11-24T17:16:06.961Z,7.70
2022-11-24T17:18:36.557Z,7.60
2022-11-24T17:21:09.554Z,7.60
2022-11-24T17:23:38.798Z,7.60
2022-11-24T17:26:08.876Z,7.40
2022-11-24T17:28:37.381Z,7.50
2022-11-24T17:31:09.065Z,7.40
2022-11-24T17:33:38.335Z,7.20
2022-11-24T17:36:07.557Z,7.20
2022-11-24T17:38:37.358Z,7.20
2022-11-24T17:41:05.737Z,7.10
2022-11-24T17:43:33.724Z,7.10
2022-11-24T17:46:04.247Z,7.00
2022-11-24T17:48:32.713Z,6.90
2022-11-24T17:51:03.427Z,6.90
2022-11-24T17:53:31.979Z,6.90
2022-11-24T17:56:00.980Z,6.90
2022-11-24T17:58:29.130Z,6.80
2022-11-24T18:00:57.221Z,6.90
2022-11-24T18:03:25.581Z,6.90
2022-11-24T18:05:53.431Z,6.90
2022-11-24T18:08:23.976Z,6.80
2022-11-24T18:10:52.020Z,6.70
2022-11-24T18:13:48.438Z,6.70
2022-11-24T18:16:09.757Z,6.70
2022-11-24T18:18:40.265Z,6.70
2022-11-24T18:21:12.668Z,6.60
2022-11-24T18:23:43.260Z,6.70
2022-11-24T18:26:14.771Z,6.70
2022-11-24T18:28:43.215Z,6.70
2022-11-24T18:31:12.938Z,6.60
2022-11-24T18:33:42.512Z,6.50
2022-11-24T18:36:13.605Z,6.60
2022-11-24T18:38:42.916Z,6.50
2022-11-24T18:41:13.660Z,6.50
2022-11-24T18:43:42.376Z,6.40
2022-11-24T18:46:13.474Z,6.50
2022-11-24T18:48:41.985Z,6.50
2022-11-24T18:51:14.510Z,6.50
2022-11-24T18:53:44.928Z,6.40
2022-11-24T18:56:14.588Z,6.40
2022-11-24T18:58:42.822Z,6.50
2022-11-24T19:01:12.784Z,6.60
2022-11-24T19:03:47.824Z,6.40
2022-11-24T19:06:18.439Z,6.30
2022-11-24T19:08:48.328Z,6.30
2022-11-24T19:11:20.549Z,6.40
2022-11-24T19:13:49.236Z,6.40
2022-11-24T19:16:17.828Z,6.50
2022-11-24T19:18:50.368Z,6.50
2022-11-24T19:21:20.593Z,6.50
2022-11-24T19:23:50.147Z,6.50
2022-11-24T19:26:18.543Z,6.60
2022-11-24T19:28:46.549Z,6.60
2022-11-24T19:31:16.296Z,6.50
2022-11-24T19:33:44.991Z,6.40
2022-11-24T19:36:14.816Z,6.40
2022-11-24T19:38:43.310Z,6.30
2022-11-24T19:41:14.471Z,6.20
2022-11-24T19:43:42.737Z,6.30
2022-11-24T19:46:12.174Z,6.30
2022-11-24T19:48:42.949Z,6.00
2022-11-24T19:51:13.824Z,6.00
2022-11-24T19:53:42.059Z,6.00
2022-11-24T19:56:13.416Z,6.10
2022-11-24T19:58:42.069Z,6.10
2022-11-24T20:01:11.841Z,6.10
2022-11-24T20:03:40.346Z,6.20
2022-11-24T20:06:10.748Z,6.30
2022-11-24T20:08:39.888Z,6.10
2022-11-24T20:11:09.576Z,6.00
2022-11-24T20:13:40.168Z,6.00
2022-11-24T20:16:11.034Z,5.90
2022-11-24T20:18:42.185Z,5.70
2022-11-24T20:21:12.359Z,5.80
2022-11-24T20:23:41.172Z,5.60
2022-11-24T20:26:11.968Z,5.50
2022-11-24T20:28:41.505Z,5.50
2022-11-24T20:31:11.558Z,5.50
2022-11-24T20:33:39.770Z,5.50
2022-11-24T20:36:10.220Z,5.40
2022-11-24T20:38:39.083Z,5.40
2022-11-24T20:41:09.483Z,5.20
2022-11-24T20:43:37.655Z,5.10
2022-11-24T20:46:09.082Z,5.10
2022-11-24T20:48:37.759Z,5.10
2022-11-24T20:51:06.592Z,5.10
2022-11-24T20:53:34.796Z,5.00
2022-11-24T20:56:06.224Z,4.90
2022-11-24T20:58:35.376Z,4.90
2022-11-24T21:01:09.561Z,5.10
2022-11-24T21:03:42.844Z,4.90
2022-11-24T21:06:12.506Z,4.80
2022-11-24T21:08:41.979Z,4.70
2022-11-24T21:11:11.432Z,4.60
2022-11-24T21:13:41.112Z,4.80
2022-11-24T21:16:14.811Z,4.80
2022-11-24T21:18:43.478Z,4.70
2022-11-24T21:21:11.504Z,4.70
2022-11-24T21:23:39.440Z,4.80
2022-11-24T21:26:13.092Z,5.00
2022-11-24T21:28:44.800Z,4.90
2022-11-24T21:31:17.077Z,4.90
2022-11-24T21:33:46.944Z,4.80
2022-11-24T21:36:16.248Z,4.60
2022-11-24T21:38:44.377Z,4.60
2022-11-24T21:41:13.971Z,4.70
2022-11-24T21:43:41.921Z,4.90
2022-11-24T21:46:11.686Z,4.80
2022-11-24T21:48:42.038Z,4.80
2022-11-24T21:51:13.586Z,4.80
2022-11-24T21:53:42.131Z,4.70
2022-11-24T21:56:13.045Z,4.60
2022-11-24T21:58:46.617Z,4.60
2022-11-24T22:01:15.457Z,4.50
2022-11-24T22:03:45.714Z,4.50
2022-11-24T22:06:14.279Z,4.60
2022-11-24T22:08:42.417Z,4.50
2022-11-24T22:11:13.288Z,4.50
2022-11-24T22:13:41.898Z,4.40
2022-11-24T22:16:12.070Z,4.50
2022-11-24T22:18:41.140Z,4.50
2022-11-24T22:21:14.583Z,4.40
2022-11-24T22:23:42.999Z,4.70
2022-11-24T22:26:13.975Z,4.60
2022-11-24T22:28:42.390Z,4.50
2022-11-24T22:31:13.324Z,4.50
2022-11-24T22:33:41.383Z,4.60
2022-11-24T22:36:12.018Z,4.60
2022-11-24T22:38:40.447Z,4.60
2022-11-24T22:41:09.864Z,4.80
2022-11-24T22:43:39.203Z,4.70
2022-11-24T22:46:08.568Z,4.50
2022-11-24T22:48:36.535Z,4.40
2022-11-24T22:51:06.064Z,4.40
2022-11-24T22:53:35.588Z,4.70
2022-11-24T22:56:04.156Z,4.70
2022-11-24T22:58:32.331Z,4.60
2022-11-24T23:01:06.124Z,4.50
2022-11-24T23:03:34.669Z,4.40
2022-11-24T23:06:03.012Z,4.50
2022-11-24T23:08:33.001Z,4.40
2022-11-24T23:11:03.588Z,4.40
2022-11-24T23:13:31.628Z,4.40
2022-11-24T23:16:03.489Z,4.40
2022-11-24T23:18:31.653Z,4.50
2022-11-24T23:21:06.580Z,4.50
2022-11-24T23:23:34.916Z,4.50
2022-11-24T23:26:06.137Z,4.50
2022-11-24T23:28:34.267Z,4.80
2022-11-24T23:31:03.947Z,4.90
2022-11-24T23:33:33.061Z,4.80
2022-11-24T23:36:02.024Z,4.80
2022-11-24T23:38:32.638Z,4.80
2022-11-24T23:41:03.992Z,4.70
2022-11-24T23:43:33.533Z,4.80
2022-11-24T23:46:04.789Z,4.70
2022-11-24T23:48:33.267Z,4.60
2022-11-24T23:51:05.432Z,4.50
2022-11-24T23:53:34.138Z,4.90
2022-11-24T23:56:02.103Z,4.80
2022-11-24T23:58:30.742Z,4.70
